Time;durP1;ratioP1;P1;durP2;ratioP2;P2;SDS_P1;SDS_P2;PMS_P1;PMS_P2;Temp;Humidity;BMP_temperature;BMP_pressure;BME280_temperature;BME280_humidity;BME280_pressure;Samples;Min_cycle;Max_cycle;Signal;HPM_P1;HPM_P2
2023/01/14 00:01:47;;;;;;;0.00;0.00;;;;;;;7.27;78.82;95845.56;4372259;32;20307;-60
2023/01/14 00:04:12;;;;;;;0.10;0.10;;;;;;;6.78;80.60;95851.16;4357888;32;20334;-58
2023/01/14 00:06:38;;;;;;;0.00;0.00;;;;;;;6.57;82.47;95836.28;4382179;32;20340;-58
2023/01/14 00:09:06;;;;;;;0.03;0.03;;;;;;;6.80;81.80;95835.88;4372690;32;20236;-58
2023/01/14 00:11:50;;;;;;;0.53;0.33;;;;;;;6.37;82.74;95844.03;4362988;32;20240;-58
2023/01/14 00:14:24;;;;;;;0.13;0.13;;;;;;;6.27;84.83;95841.31;4367318;32;20277;-56
2023/01/14 00:16:52;;;;;;;2.03;0.77;;;;;;;6.19;84.33;95840.75;4375973;32;20275;-57
2023/01/14 00:19:18;;;;;;;0.00;0.00;;;;;;;6.08;84.74;95844.34;4378764;32;20294;-57
2023/01/14 00:21:44;;;;;;;0.00;0.00;;;;;;;6.12;84.57;95834.13;4361041;32;20284;-57
2023/01/14 00:24:11;;;;;;;0.13;0.13;;;;;;;6.13;84.47;95833.06;4380129;32;20355;-57
2023/01/14 00:26:37;;;;;;;0.63;0.30;;;;;;;6.19;83.91;95840.75;4372917;32;20315;-57
2023/01/14 00:29:03;;;;;;;0.27;0.27;;;;;;;6.04;84.77;95840.63;4382459;32;20289;-57
2023/01/14 00:31:29;;;;;;;0.10;0.10;;;;;;;5.72;85.94;95842.44;4365148;32;20244;-58
2023/01/14 00:33:57;;;;;;;0.10;0.10;;;;;;;5.70;86.01;95842.69;4366144;32;20189;-58
2023/01/14 00:36:24;;;;;;;0.10;0.10;;;;;;;5.80;85.88;95840.16;4354035;32;20208;-57
2023/01/14 00:38:51;;;;;;;0.00;0.00;;;;;;;5.70;86.31;95834.00;4364826;32;20285;-57
2023/01/14 00:41:22;;;;;;;0.20;0.20;;;;;;;5.65;86.75;95841.84;4376753;32;20334;-57
2023/01/14 00:43:50;;;;;;;0.20;0.20;;;;;;;5.66;86.46;95836.31;4347153;32;20328;-57
2023/01/14 00:46:18;;;;;;;0.00;0.00;;;;;;;5.63;86.16;95843.91;4341637;32;20328;-57
2023/01/14 00:48:44;;;;;;;0.23;0.23;;;;;;;5.51;86.26;95850.13;4357707;32;20277;-56
2023/01/14 00:51:10;;;;;;;0.00;0.00;;;;;;;5.62;86.00;95851.03;4362717;32;20296;-58
2023/01/14 00:53:37;;;;;;;0.00;0.00;;;;;;;5.46;86.93;95851.91;4357493;32;20212;-57
2023/01/14 00:56:03;;;;;;;0.10;0.10;;;;;;;5.58;86.18;95854.41;4358245;32;20302;-57
2023/01/14 00:58:28;;;;;;;0.00;0.00;;;;;;;5.53;85.80;95845.44;4372577;32;20355;-58
2023/01/14 01:00:54;;;;;;;0.00;0.00;;;;;;;5.71;85.45;95843.47;4363771;32;20181;-58
2023/01/14 01:03:21;;;;;;;0.20;0.20;;;;;;;5.70;85.14;95847.94;4371440;32;20243;-57
2023/01/14 01:05:47;;;;;;;0.00;0.00;;;;;;;5.43;86.10;95852.41;4385505;32;20339;-58
2023/01/14 01:08:15;;;;;;;1.23;0.53;;;;;;;5.56;86.20;95852.03;4388246;32;20379;-58
2023/01/14 01:10:49;;;;;;;0.10;0.10;;;;;;;5.40;86.45;95847.66;4341479;32;20300;-57
2023/01/14 01:13:15;;;;;;;0.10;0.10;;;;;;;5.41;87.56;95838.69;4349122;32;20280;-63
2023/01/14 01:15:41;;;;;;;0.00;0.00;;;;;;;5.47;87.08;95838.50;4375608;32;20294;-57
2023/01/14 01:18:09;;;;;;;0.00;0.00;;;;;;;5.68;86.56;95838.72;4387484;32;20204;-57
2023/01/14 01:20:34;;;;;;;0.00;0.00;;;;;;;5.61;86.50;95843.41;4367111;32;20277;-57
2023/01/14 01:23:00;;;;;;;0.07;0.07;;;;;;;5.68;86.51;95841.34;4345114;32;20392;-58
2023/01/14 01:25:26;;;;;;;0.10;0.10;;;;;;;5.59;86.53;95841.00;4337040;32;20192;-58
2023/01/14 01:27:54;;;;;;;0.10;0.10;;;;;;;5.64;86.54;95845.50;4360946;32;20193;-58
2023/01/14 01:30:19;;;;;;;0.10;0.10;;;;;;;5.69;86.51;95850.84;4363332;32;20206;-57
2023/01/14 01:32:45;;;;;;;0.10;0.10;;;;;;;5.66;86.84;95856.59;4361142;32;20276;-63
2023/01/14 01:35:11;;;;;;;0.13;0.13;;;;;;;5.62;86.95;95851.03;4388704;32;20211;-57
2023/01/14 01:37:36;;;;;;;0.73;0.73;;;;;;;5.63;86.63;95852.59;4370574;32;20193;-58
2023/01/14 01:40:02;;;;;;;3.90;0.73;;;;;;;5.66;86.85;95840.78;4364004;32;20189;-57
2023/01/14 01:42:33;;;;;;;0.27;0.27;;;;;;;5.80;86.21;95842.00;4373938;32;20196;-57
2023/01/14 01:45:31;;;;;;;0.30;0.30;;;;;;;5.66;86.64;95851.31;4370822;32;20327;-57
2023/01/14 01:48:03;;;;;;;0.10;0.10;;;;;;;5.70;86.56;95855.06;4358456;32;20376;-58
2023/01/14 01:50:29;;;;;;;0.10;0.10;;;;;;;5.55;86.30;95853.06;4355768;32;20343;-58
2023/01/14 01:52:54;;;;;;;0.00;0.00;;;;;;;5.61;86.48;95857.31;4384725;32;20299;-58
2023/01/14 01:55:20;;;;;;;0.23;0.23;;;;;;;5.64;86.68;95858.66;4393122;32;20201;-58
2023/01/14 01:57:55;;;;;;;0.13;0.13;;;;;;;5.73;85.85;95857.97;4378527;32;20189;-59
2023/01/14 02:00:25;;;;;;;0.30;0.30;;;;;;;5.54;86.31;95877.78;4382971;32;20196;-58
2023/01/14 02:02:55;;;;;;;0.30;0.30;;;;;;;5.66;86.02;95882.91;4323888;32;20339;-58
2023/01/14 02:05:21;;;;;;;0.00;0.00;;;;;;;5.86;85.64;95878.63;4343314;32;20332;-58
2023/01/14 02:07:46;;;;;;;0.40;0.40;;;;;;;5.94;85.17;95874.78;4362845;32;20315;-57
2023/01/14 02:10:12;;;;;;;0.13;0.13;;;;;;;5.97;84.68;95879.56;4355276;32;20193;-58
2023/01/14 02:13:03;;;;;;;0.30;0.30;;;;;;;5.95;85.01;95884.28;4355914;32;20193;-58
2023/01/14 02:15:38;;;;;;;0.63;0.37;;;;;;;5.95;85.16;95880.84;4365897;32;20326;-58
2023/01/14 02:18:21;;;;;;;0.00;0.00;;;;;;;6.01;84.50;95883.28;4339031;32;20381;-58
2023/01/14 02:21:03;;;;;;;0.17;0.17;;;;;;;6.05;84.84;95888.81;4313881;32;20281;-58
2023/01/14 02:23:44;;;;;;;0.40;0.40;;;;;;;6.02;84.62;95892.78;4370756;32;20323;-58
2023/01/14 02:26:37;;;;;;;0.00;0.00;;;;;;;5.91;85.31;95888.44;4371934;32;20280;-58
2023/01/14 02:29:35;;;;;;;0.73;0.40;;;;;;;5.76;86.07;95891.72;4353547;32;20296;-58
2023/01/14 02:32:33;;;;;;;1.10;0.60;;;;;;;5.75;86.25;95899.84;4362104;32;20299;-57
2023/01/14 02:35:31;;;;;;;0.10;0.10;;;;;;;5.84;86.19;95901.78;4359855;32;20342;-57
2023/01/14 02:38:09;;;;;;;0.17;0.17;;;;;;;5.65;86.70;95897.91;4358565;32;20302;-58
2023/01/14 02:40:47;;;;;;;1.17;0.10;;;;;;;5.73;87.08;95904.56;4356616;32;20288;-58
2023/01/14 02:46:14;;;;;;;0.20;0.20;;;;;;;5.68;86.91;95901.88;4367072;32;20315;-58
2023/01/14 02:48:40;;;;;;;0.33;0.33;;;;;;;5.73;86.77;95897.47;4346719;32;20302;-58
2023/01/14 02:51:06;;;;;;;0.00;0.00;;;;;;;5.76;86.85;95896.19;4324473;32;20372;-58
2023/01/14 02:53:31;;;;;;;0.30;0.20;;;;;;;5.56;87.52;95885.44;4366253;32;20328;-57
2023/01/14 02:55:57;;;;;;;2.20;0.43;;;;;;;5.57;87.64;95884.41;4318947;32;20241;-57
2023/01/14 02:58:31;;;;;;;0.87;0.50;;;;;;;5.53;88.05;95878.84;4319047;32;20266;-58
2023/01/14 03:01:36;;;;;;;0.00;0.00;;;;;;;5.44;88.20;95878.47;4354081;32;20255;-57
2023/01/14 03:04:39;;;;;;;0.00;0.00;;;;;;;5.55;88.19;95870.69;4350969;32;20348;-58
2023/01/14 03:07:26;;;;;;;0.10;0.10;;;;;;;5.55;87.49;95881.22;4370554;32;20304;-58
2023/01/14 03:10:07;;;;;;;0.20;0.20;;;;;;;5.81;87.20;95880.44;4358644;32;20328;-57
2023/01/14 03:12:38;;;;;;;0.47;0.47;;;;;;;5.70;87.35;95889.25;4342207;32;20328;-57
2023/01/14 03:15:24;;;;;;;0.10;0.10;;;;;;;5.74;87.33;95903.53;4343545;32;20338;-58
2023/01/14 03:17:57;;;;;;;0.07;0.07;;;;;;;5.78;87.29;95899.34;4357805;32;20395;-58
2023/01/14 03:20:46;;;;;;;0.10;0.10;;;;;;;5.76;87.40;95890.91;4378805;32;20332;-57
2023/01/14 03:23:18;;;;;;;0.00;0.00;;;;;;;5.80;87.15;95884.13;4378786;32;20326;-58
2023/01/14 03:25:47;;;;;;;0.40;0.40;;;;;;;5.74;87.45;95887.72;4345139;32;20425;-58
2023/01/14 03:28:18;;;;;;;2.53;0.30;;;;;;;5.81;87.04;95888.34;4351551;32;20328;-58
2023/01/14 03:31:07;;;;;;;0.23;0.23;;;;;;;5.90;86.93;95880.78;4343470;32;20308;-58
2023/01/14 03:33:39;;;;;;;6.03;0.30;;;;;;;5.93;86.60;95883.72;4361097;32;20277;-58
2023/01/14 03:36:06;;;;;;;0.10;0.10;;;;;;;6.02;86.73;95871.72;4361313;32;20273;-57
2023/01/14 03:38:40;;;;;;;0.20;0.20;;;;;;;6.03;86.46;95875.91;4379248;32;20280;-57
2023/01/14 03:41:09;;;;;;;0.00;0.00;;;;;;;5.95;86.62;95870.31;4376369;32;20398;-58
2023/01/14 03:43:46;;;;;;;0.10;0.10;;;;;;;5.93;86.39;95877.66;4357313;32;20336;-55
2023/01/14 03:46:11;;;;;;;0.20;0.20;;;;;;;6.01;86.79;95883.28;4381855;32;20302;-58
2023/01/14 03:48:37;;;;;;;0.20;0.20;;;;;;;6.07;86.52;95869.09;4387635;32;20273;-58
2023/01/14 03:51:14;;;;;;;0.00;0.00;;;;;;;5.99;86.14;95868.78;4370373;32;20184;-58
2023/01/14 03:54:04;;;;;;;0.10;0.10;;;;;;;6.08;86.58;95867.25;4389705;32;20185;-57
2023/01/14 03:57:03;;;;;;;1.07;0.50;;;;;;;5.92;86.51;95865.56;4360906;32;20338;-58
2023/01/14 03:59:41;;;;;;;0.07;0.07;;;;;;;5.97;86.55;95869.03;4381580;32;20307;-57
2023/01/14 04:02:09;;;;;;;0.00;0.00;;;;;;;5.98;86.66;95867.19;4367131;32;20280;-58
2023/01/14 04:04:38;;;;;;;0.23;0.23;;;;;;;5.96;87.15;95872.72;4386498;32;20355;-57
2023/01/14 04:07:03;;;;;;;1.97;0.27;;;;;;;6.00;86.89;95883.53;4388440;32;20288;-58
2023/01/14 04:09:28;;;;;;;1.23;0.50;;;;;;;5.85;87.42;95870.97;4380004;32;20316;-57
2023/01/14 04:11:54;;;;;;;0.10;0.10;;;;;;;5.90;87.15;95870.25;4386235;32;20193;-58
2023/01/14 04:17:04;;;;;;;1.03;0.63;;;;;;;5.92;87.34;95870.81;4390132;32;20275;-58
2023/01/14 04:19:30;;;;;;;0.20;0.20;;;;;;;5.92;87.21;95876.87;4366455;32;20280;-57
2023/01/14 04:21:55;;;;;;;0.00;0.00;;;;;;;5.96;86.86;95885.87;4344732;32;20272;-58
2023/01/14 04:24:21;;;;;;;0.13;0.10;;;;;;;5.93;86.95;95881.09;4371119;32;20277;-57
2023/01/14 04:26:46;;;;;;;0.27;0.27;;;;;;;5.94;87.45;95885.31;4361233;32;20298;-58
2023/01/14 04:29:11;;;;;;;0.00;0.00;;;;;;;5.96;87.03;95885.06;4339377;32;20262;-58
2023/01/14 04:31:37;;;;;;;0.27;0.27;;;;;;;6.02;86.85;95881.44;4346378;32;20240;-58
2023/01/14 04:34:02;;;;;;;0.20;0.20;;;;;;;5.91;86.49;95880.56;4363871;32;20188;-57
2023/01/14 04:36:27;;;;;;;0.27;0.27;;;;;;;6.02;86.46;95884.09;4370872;32;20216;-58
2023/01/14 04:38:52;;;;;;;0.20;0.20;;;;;;;6.06;86.18;95883.31;4362711;32;20225;-58
2023/01/14 04:44:02;;;;;;;0.30;0.30;;;;;;;6.01;86.64;95880.66;4373738;32;20203;-57
2023/01/14 04:46:27;;;;;;;0.00;0.00;;;;;;;5.93;86.45;95881.09;4390340;32;20284;-58
2023/01/14 04:48:52;;;;;;;0.20;0.20;;;;;;;5.91;86.98;95880.56;4390537;32;20300;-57
2023/01/14 04:51:18;;;;;;;0.07;0.07;;;;;;;5.95;87.01;95879.00;4372383;32;20184;-57
2023/01/14 04:53:43;;;;;;;0.47;0.47;;;;;;;5.90;86.57;95875.53;4376207;32;20259;-57
2023/01/14 04:56:10;;;;;;;0.20;0.20;;;;;;;5.91;86.53;95877.91;4365193;32;20216;-57
2023/01/14 04:58:35;;;;;;;0.27;0.27;;;;;;;5.98;85.93;95880.34;4386129;32;20216;-57
2023/01/14 05:01:00;;;;;;;0.00;0.00;;;;;;;6.05;85.51;95873.03;4384479;32;20304;-57
2023/01/14 05:03:26;;;;;;;0.00;0.00;;;;;;;5.99;85.88;95876.69;4380473;32;20189;-58
2023/01/14 05:05:51;;;;;;;0.10;0.10;;;;;;;5.98;85.94;95881.16;4352772;32;20228;-58
2023/01/14 05:08:17;;;;;;;0.40;0.40;;;;;;;6.04;85.44;95872.22;4338062;32;20232;-58
2023/01/14 05:10:42;;;;;;;0.17;0.17;;;;;;;6.08;85.22;95873.31;4343241;32;20225;-58
2023/01/14 05:13:08;;;;;;;1.80;0.30;;;;;;;6.10;85.13;95879.13;4342101;32;20232;-58
2023/01/14 05:15:39;;;;;;;0.13;0.13;;;;;;;6.12;85.13;95873.62;4344179;32;20516;-58
2023/01/14 05:18:05;;;;;;;1.00;1.00;;;;;;;6.06;85.26;95877.25;4366273;32;20188;-57
2023/01/14 05:20:32;;;;;;;0.83;0.83;;;;;;;6.09;84.92;95874.91;4375810;32;20288;-57
2023/01/14 05:23:00;;;;;;;4.30;0.27;;;;;;;6.18;84.90;95867.34;4375057;32;20296;-58
2023/01/14 05:25:27;;;;;;;0.77;0.77;;;;;;;6.17;84.31;95878.94;4371715;32;20264;-57
2023/01/14 05:27:53;;;;;;;2.27;0.30;;;;;;;6.32;83.89;95878.25;4358368;32;20287;-58
2023/01/14 05:30:18;;;;;;;0.40;0.40;;;;;;;6.25;84.18;95872.38;4354689;32;20276;-58
2023/01/14 05:32:43;;;;;;;0.10;0.10;;;;;;;6.31;84.01;95872.19;4378133;32;20310;-58
2023/01/14 05:35:09;;;;;;;0.00;0.00;;;;;;;6.29;83.92;95876.91;4377039;32;20241;-58
2023/01/14 05:37:34;;;;;;;0.40;0.40;;;;;;;6.36;83.39;95880.13;4369076;32;20254;-58
2023/01/14 05:40:01;;;;;;;0.83;0.43;;;;;;;6.32;83.35;95886.16;4364963;32;20185;-58
2023/01/14 05:47:55;;;;;;;0.00;0.00;;;;;;;6.51;82.65;95866.25;4380276;32;20312;-56
2023/01/14 05:50:21;;;;;;;2.83;0.43;;;;;;;6.27;82.96;95857.13;4353410;32;20344;-58
2023/01/14 05:52:46;;;;;;;0.13;0.13;;;;;;;6.22;83.73;95855.28;4372073;32;20185;-58
2023/01/14 05:55:12;;;;;;;0.70;0.70;;;;;;;6.20;83.90;95863.44;4381293;32;20205;-58
2023/01/14 05:57:37;;;;;;;0.97;0.77;;;;;;;6.42;83.17;95857.25;4365040;32;20294;-58
2023/01/14 06:00:03;;;;;;;0.33;0.33;;;;;;;6.30;82.77;95854.00;4375093;32;20207;-58
2023/01/14 06:07:58;;;;;;;0.10;0.10;;;;;;;6.34;83.35;95849.81;4383378;32;20299;-58
2023/01/14 06:10:24;;;;;;;0.03;0.03;;;;;;;6.35;82.55;95843.50;4391586;32;20288;-58
2023/01/14 06:12:59;;;;;;;0.20;0.20;;;;;;;6.52;81.98;95855.47;4371947;32;20228;-57
2023/01/14 06:15:29;;;;;;;0.20;0.20;;;;;;;6.47;82.37;95846.72;4388437;32;20329;-55
2023/01/14 06:18:08;;;;;;;1.07;0.67;;;;;;;6.50;81.45;95854.94;4350656;32;20316;-58
2023/01/14 06:20:34;;;;;;;0.00;0.00;;;;;;;6.26;82.83;95853.69;4336801;32;20386;-58
2023/01/14 06:22:59;;;;;;;0.87;0.43;;;;;;;6.50;81.85;95848.88;4374045;32;20349;-58
2023/01/14 06:25:25;;;;;;;0.00;0.00;;;;;;;6.50;81.58;95848.88;4395875;32;20192;-57
2023/01/14 06:27:50;;;;;;;0.83;0.53;;;;;;;6.39;81.76;95853.28;4389621;32;20223;-58
2023/01/14 06:30:16;;;;;;;0.10;0.10;;;;;;;6.14;83.09;95855.72;4388423;32;20208;-63
2023/01/14 06:32:41;;;;;;;0.60;0.60;;;;;;;6.34;82.61;95855.09;4363507;32;20228;-58
2023/01/14 06:35:08;;;;;;;8.40;0.67;;;;;;;6.28;82.21;95854.25;4340588;32;20326;-58
2023/01/14 06:37:33;;;;;;;0.17;0.17;;;;;;;6.04;83.37;95860.91;4352176;32;20262;-58
2023/01/14 06:39:59;;;;;;;3.03;0.63;;;;;;;6.12;83.51;95852.56;4340533;32;20436;-58
2023/01/14 06:42:25;;;;;;;0.87;0.33;;;;;;;6.05;83.35;95852.75;4363718;32;20267;-58
2023/01/14 06:44:50;;;;;;;0.17;0.17;;;;;;;6.16;83.05;95846.53;4387365;32;20196;-58
2023/01/14 06:47:16;;;;;;;0.00;0.00;;;;;;;6.22;83.04;95846.59;4387999;32;20279;-60
2023/01/14 06:49:41;;;;;;;0.20;0.20;;;;;;;6.09;83.29;95850.41;4390457;32;20211;-58
2023/01/14 06:52:07;;;;;;;0.00;0.00;;;;;;;5.95;83.40;95844.78;4366737;32;20274;-58
2023/01/14 06:54:32;;;;;;;4.13;0.50;;;;;;;6.08;83.39;95840.94;4372891;32;20249;-58
2023/01/14 06:56:58;;;;;;;0.20;0.20;;;;;;;5.92;84.11;95841.84;4387309;32;20188;-58
2023/01/14 06:59:23;;;;;;;0.30;0.30;;;;;;;5.74;84.50;95833.25;4389467;32;20189;-58
2023/01/14 07:01:48;;;;;;;0.67;0.67;;;;;;;5.46;85.70;95836.12;4380823;32;20223;-58
2023/01/14 07:04:14;;;;;;;0.40;0.40;;;;;;;5.54;85.94;95840.97;4351468;32;20235;-58
2023/01/14 07:06:39;;;;;;;1.00;0.67;;;;;;;5.79;84.90;95840.41;4339164;32;20236;-58
2023/01/14 07:09:04;;;;;;;0.27;0.27;;;;;;;5.63;85.13;95836.81;4364705;32;20210;-57
2023/01/14 07:11:30;;;;;;;0.00;0.00;;;;;;;5.75;84.56;95829.56;4359947;32;20181;-58
2023/01/14 07:13:55;;;;;;;0.87;0.47;;;;;;;5.70;84.37;95826.91;4384849;32;20218;-58
2023/01/14 07:16:20;;;;;;;0.60;0.60;;;;;;;5.70;84.46;95820.84;4379783;32;20200;-58
2023/01/14 07:18:46;;;;;;;0.50;0.50;;;;;;;5.67;84.53;95821.34;4383253;32;20247;-59
2023/01/14 07:21:11;;;;;;;0.33;0.33;;;;;;;5.71;84.71;95812.69;4356798;32;20232;-57
2023/01/14 07:23:36;;;;;;;0.03;0.03;;;;;;;5.80;84.16;95805.16;4376106;32;20191;-58
2023/01/14 07:26:02;;;;;;;0.23;0.23;;;;;;;5.84;83.98;95804.38;4392550;32;20228;-58
2023/01/14 07:28:29;;;;;;;0.93;0.47;;;;;;;5.62;83.99;95802.84;4381279;32;20199;-58
2023/01/14 07:30:55;;;;;;;1.20;0.83;;;;;;;5.62;84.15;95792.34;4398267;32;20192;-57
2023/01/14 07:33:21;;;;;;;0.30;0.30;;;;;;;5.52;84.02;95796.47;4351176;32;20319;-57
2023/01/14 07:35:51;;;;;;;0.50;0.43;;;;;;;5.76;83.50;95785.63;4382552;32;20208;-58
2023/01/14 07:38:17;;;;;;;0.20;0.20;;;;;;;5.71;83.32;95783.75;4387410;32;20299;-58
2023/01/14 07:40:42;;;;;;;0.40;0.40;;;;;;;5.66;83.20;95782.91;4384169;32;20288;-58
2023/01/14 07:43:07;;;;;;;1.90;0.50;;;;;;;5.80;82.74;95782.25;4391082;32;20288;-58
2023/01/14 07:45:33;;;;;;;4.10;0.97;;;;;;;5.86;82.54;95772.53;4359109;32;20291;-58
2023/01/14 07:47:58;;;;;;;0.90;0.77;;;;;;;5.72;82.77;95776.63;4362504;32;20192;-58
2023/01/14 07:50:23;;;;;;;0.33;0.33;;;;;;;5.82;82.43;95769.59;4398681;32;20197;-58
2023/01/14 07:52:57;;;;;;;0.40;0.40;;;;;;;6.01;82.06;95775.31;4390704;32;20231;-57
2023/01/14 07:55:24;;;;;;;1.10;0.53;;;;;;;6.09;81.66;95766.94;4382766;32;20184;-58
2023/01/14 07:57:50;;;;;;;0.27;0.27;;;;;;;6.15;81.38;95768.56;4373981;32;20353;-58
2023/01/14 08:00:16;;;;;;;0.40;0.40;;;;;;;6.30;80.96;95765.22;4363452;32;20284;-64
2023/01/14 08:02:42;;;;;;;0.57;0.50;;;;;;;6.28;80.49;95755.97;4357783;32;20197;-58
2023/01/14 08:05:07;;;;;;;0.67;0.67;;;;;;;6.38;80.26;95754.22;4389090;32;20295;-58
2023/01/14 08:07:33;;;;;;;0.30;0.23;;;;;;;6.26;80.84;95763.34;4390407;32;20196;-58
2023/01/14 08:09:58;;;;;;;0.10;0.10;;;;;;;6.24;81.01;95758.31;4358211;32;20394;-58
2023/01/14 08:12:24;;;;;;;0.73;0.43;;;;;;;6.18;81.05;95760.16;4367147;32;20221;-58
2023/01/14 08:14:49;;;;;;;6.07;1.00;;;;;;;6.45;80.29;95759.22;4377230;32;20262;-57
2023/01/14 08:17:15;;;;;;;0.40;0.40;;;;;;;6.47;80.33;95762.41;4369303;32;20201;-57
2023/01/14 08:19:40;;;;;;;0.40;0.40;;;;;;;6.67;79.67;95757.22;4376288;32;20196;-57
2023/01/14 08:22:05;;;;;;;0.30;0.30;;;;;;;6.64;79.53;95760.41;4377061;32;20307;-58
2023/01/14 08:24:31;;;;;;;0.10;0.10;;;;;;;6.51;79.59;95758.22;4373512;32;20192;-59
2023/01/14 08:26:56;;;;;;;1.70;0.93;;;;;;;6.63;79.79;95758.81;4370158;32;20185;-58
2023/01/14 08:29:21;;;;;;;0.93;0.57;;;;;;;6.54;79.66;95765.63;4393441;32;20196;-58
2023/01/14 08:31:54;;;;;;;3.50;0.67;;;;;;;6.54;79.81;95768.25;4387388;32;20181;-59
2023/01/14 08:34:21;;;;;;;0.60;0.60;;;;;;;6.54;80.13;95760.34;4381411;32;20242;-58
2023/01/14 08:36:48;;;;;;;0.77;0.77;;;;;;;6.51;80.13;95747.66;4376614;32;20317;-59
2023/01/14 08:39:13;;;;;;;0.50;0.50;;;;;;;6.62;79.84;95759.06;4367742;32;20299;-58
2023/01/14 08:41:39;;;;;;;0.53;0.53;;;;;;;6.43;80.57;95754.25;4390257;32;20281;-57
2023/01/14 08:44:04;;;;;;;0.10;0.10;;;;;;;6.58;80.32;95748.25;4384781;32;20290;-57
2023/01/14 08:46:29;;;;;;;0.47;0.47;;;;;;;6.61;80.05;95746.94;4363396;32;20269;-58
2023/01/14 08:48:55;;;;;;;0.83;0.50;;;;;;;6.60;80.06;95740.06;4395362;32;20207;-58
2023/01/14 08:51:26;;;;;;;13.37;1.17;;;;;;;6.52;80.39;95741.34;4381847;32;20241;-58
2023/01/14 08:53:51;;;;;;;1.53;0.70;;;;;;;6.31;81.34;95737.81;4396509;32;20207;-58
2023/01/14 08:56:17;;;;;;;0.87;0.87;;;;;;;6.27;81.56;95730.69;4362473;32;20299;-58
2023/01/14 08:58:43;;;;;;;0.37;0.37;;;;;;;6.22;81.87;95722.78;4372555;32;20218;-58
2023/01/14 09:01:09;;;;;;;1.10;1.00;;;;;;;6.33;81.62;95724.41;4376548;32;20211;-58
2023/01/14 09:03:36;;;;;;;0.20;0.20;;;;;;;6.26;82.22;95718.56;4389528;32;20280;-58
2023/01/14 09:06:11;;;;;;;0.87;0.87;;;;;;;6.25;82.34;95712.50;4375192;32;20347;-58
2023/01/14 09:17:06;;;;;;;0.20;0.20;;;;;;;6.15;81.81;95697.44;4385523;32;20329;-58
2023/01/14 09:19:36;;;;;;;2.17;0.90;;;;;;;6.07;82.89;95700.56;4365055;32;20312;-57
2023/01/14 09:22:03;;;;;;;0.77;0.53;;;;;;;6.31;82.04;95700.16;4355964;32;20328;-57
2023/01/14 09:24:28;;;;;;;2.47;0.67;;;;;;;6.45;80.90;95696.78;4372051;32;20291;-58
2023/01/14 09:26:53;;;;;;;0.67;0.50;;;;;;;6.75;79.70;95695.31;4395131;32;20358;-57
2023/01/14 09:29:19;;;;;;;0.30;0.30;;;;;;;6.75;79.13;95695.31;4388551;32;20196;-58
2023/01/14 09:31:44;;;;;;;1.27;0.70;;;;;;;6.85;78.30;95696.16;4389711;32;20205;-58
2023/01/14 09:34:09;;;;;;;2.13;0.40;;;;;;;6.87;77.92;95701.94;4375729;32;20236;-57
2023/01/14 09:36:34;;;;;;;0.20;0.20;;;;;;;6.82;77.78;95701.94;4349268;32;20228;-57
2023/01/14 09:39:00;;;;;;;0.00;0.00;;;;;;;6.98;77.58;95702.75;4366052;32;20250;-57
2023/01/14 09:41:32;;;;;;;0.27;0.27;;;;;;;7.01;76.90;95696.19;4367400;32;20247;-58
2023/01/14 09:43:59;;;;;;;0.33;0.33;;;;;;;7.03;77.39;95707.25;4387757;32;20210;-58
2023/01/14 09:46:26;;;;;;;0.10;0.10;;;;;;;7.16;77.05;95704.09;4390218;32;20349;-59
2023/01/14 09:48:57;;;;;;;2.07;0.33;;;;;;;7.29;75.66;95694.87;4354090;32;20331;-58
2023/01/14 09:52:10;;;;;;;0.20;0.20;;;;;;;7.36;75.51;95690.12;4343938;32;20331;-58
2023/01/14 09:54:47;;;;;;;0.30;0.30;;;;;;;7.40;74.84;95681.44;4372602;32;20284;-58
2023/01/14 09:57:35;;;;;;;0.53;0.50;;;;;;;7.58;74.34;95672.97;4381148;32;20288;-58
2023/01/14 10:00:16;;;;;;;0.17;0.17;;;;;;;7.72;74.61;95664.50;4383658;32;20335;-59
2023/01/14 10:02:51;;;;;;;0.00;0.00;;;;;;;7.87;73.57;95669.78;4356415;32;20283;-58
2023/01/14 10:05:28;;;;;;;0.20;0.20;;;;;;;7.90;72.81;95674.50;4351458;32;20335;-62
2023/01/14 10:07:56;;;;;;;0.27;0.27;;;;;;;7.97;71.66;95669.75;4368706;32;20306;-58
2023/01/14 10:10:33;;;;;;;0.37;0.37;;;;;;;8.02;71.32;95656.53;4371551;32;20346;-58
2023/01/14 10:13:03;;;;;;;0.03;0.03;;;;;;;8.05;71.45;95655.22;4386907;32;20306;-58
2023/01/14 10:15:49;;;;;;;0.10;0.10;;;;;;;8.24;70.62;95649.06;4380900;32;20292;-58
2023/01/14 10:18:20;;;;;;;0.10;0.10;;;;;;;8.24;70.01;95643.78;4359739;32;20339;-58
2023/01/14 10:20:54;;;;;;;0.23;0.23;;;;;;;8.46;69.18;95642.69;4328581;32;20336;-59
2023/01/14 10:23:45;;;;;;;0.50;0.20;;;;;;;8.59;68.57;95639.44;4348153;32;20302;-58
2023/01/14 10:26:15;;;;;;;1.87;0.50;;;;;;;8.55;68.20;95633.09;4371340;32;20302;-59
2023/01/14 10:28:44;;;;;;;0.07;0.03;;;;;;;8.60;67.92;95617.22;4363304;32;20287;-59
2023/01/14 10:31:28;;;;;;;0.73;0.30;;;;;;;8.58;68.55;95614.03;4367885;32;20340;-58
2023/01/14 10:33:54;;;;;;;0.30;0.30;;;;;;;8.64;67.47;95605.03;4382792;32;20306;-58
2023/01/14 10:36:23;;;;;;;0.10;0.10;;;;;;;8.82;65.78;95590.38;4386871;32;20284;-58
2023/01/14 10:38:50;;;;;;;0.00;0.00;;;;;;;8.84;65.71;95589.03;4381351;32;20205;-59
2023/01/14 10:41:48;;;;;;;0.50;0.03;;;;;;;8.96;65.92;95591.31;4384370;32;20330;-58
2023/01/14 10:44:03;;;;;;;0.10;0.10;;;;;;;9.00;66.39;95591.56;4362286;32;20307;-58
2023/01/14 10:46:30;;;;;;;0.00;0.00;;;;;;;9.10;65.09;95588.84;4373804;32;20295;-58
2023/01/14 10:49:04;;;;;;;0.10;0.10;;;;;;;9.00;65.66;95580.97;4377463;32;20371;-59
2023/01/14 10:51:33;;;;;;;0.20;0.20;;;;;;;9.06;65.36;95574.59;4382441;32;20287;-58
2023/01/14 10:54:12;;;;;;;0.10;0.10;;;;;;;9.18;65.21;95569.72;4362179;32;20338;-58
2023/01/14 10:56:41;;;;;;;0.10;0.10;;;;;;;9.33;65.46;95566.16;4354327;32;23069;-58
2023/01/14 10:59:22;;;;;;;0.10;0.10;;;;;;;9.57;65.09;95557.16;4385143;32;20349;-58
2023/01/14 11:01:47;;;;;;;1.60;0.23;;;;;;;9.60;65.50;95548.66;4374058;32;20205;-59
2023/01/14 11:04:13;;;;;;;0.00;0.00;;;;;;;9.77;64.58;95550.09;4375929;32;20308;-58
2023/01/14 11:06:39;;;;;;;0.10;0.10;;;;;;;9.76;64.84;95540.56;4364659;32;20273;-58
2023/01/14 11:09:04;;;;;;;0.40;0.40;;;;;;;9.73;65.05;95546.41;4353372;32;20235;-59
2023/01/14 11:11:39;;;;;;;0.30;0.30;;;;;;;9.87;64.81;95542.00;4333140;32;20243;-59
2023/01/14 11:14:31;;;;;;;0.40;0.40;;;;;;;10.00;63.57;95533.38;4376660;32;20196;-60
2023/01/14 11:16:58;;;;;;;0.27;0.27;;;;;;;9.86;64.13;95516.59;4387351;32;20251;-59
2023/01/14 11:19:24;;;;;;;0.10;0.10;;;;;;;9.70;64.52;95510.69;4375674;32;20192;-58
2023/01/14 11:22:00;;;;;;;0.10;0.10;;;;;;;9.77;63.83;95505.06;4363487;32;20236;-58
2023/01/14 11:24:37;;;;;;;0.50;0.50;;;;;;;9.91;63.53;95500.62;4374863;32;20192;-58
2023/01/14 11:27:06;;;;;;;5.83;0.50;;;;;;;10.02;63.33;95490.69;4395122;32;20268;-58
2023/01/14 11:29:35;;;;;;;0.20;0.20;;;;;;;9.93;63.13;95485.25;4372937;32;20188;-58
2023/01/14 11:32:10;;;;;;;0.13;0.13;;;;;;;9.97;62.99;95475.66;4386225;32;20232;-59
2023/01/14 11:34:39;;;;;;;0.13;0.13;;;;;;;10.08;62.89;95463.84;4358960;32;20210;-58
2023/01/14 11:37:08;;;;;;;0.47;0.47;;;;;;;10.18;62.20;95455.75;4389827;32;20188;-58
2023/01/14 11:39:34;;;;;;;0.07;0.07;;;;;;;10.25;62.01;95455.41;4390843;32;20192;-58
2023/01/14 11:42:02;;;;;;;0.53;0.53;;;;;;;10.33;61.67;95449.47;4390682;32;20201;-57
2023/01/14 11:44:31;;;;;;;0.20;0.20;;;;;;;10.26;61.81;95447.16;4365218;32;20266;-58
2023/01/14 11:47:13;;;;;;;0.23;0.23;;;;;;;10.13;62.64;95437.25;4363970;32;20201;-58
2023/01/14 11:49:38;;;;;;;0.30;0.30;;;;;;;9.99;63.23;95436.37;4373627;32;20266;-58
2023/01/14 11:52:14;;;;;;;0.27;0.27;;;;;;;9.95;63.50;95435.41;4382556;32;20204;-57
2023/01/14 11:54:40;;;;;;;0.10;0.10;;;;;;;10.17;62.43;95427.66;4387008;32;20215;-57
2023/01/14 11:57:15;;;;;;;0.27;0.23;;;;;;;10.27;62.86;95432.84;4351782;32;20227;-57
2023/01/14 11:59:41;;;;;;;0.30;0.10;;;;;;;10.31;62.97;95425.88;4349945;32;20238;-58
2023/01/14 12:02:27;;;;;;;0.00;0.00;;;;;;;10.36;62.45;95422.38;4381583;32;20237;-58
2023/01/14 12:04:56;;;;;;;0.10;0.10;;;;;;;10.35;62.83;95417.34;4380927;32;20196;-58
2023/01/14 12:07:29;;;;;;;1.07;0.30;;;;;;;10.43;62.09;95416.69;4372480;32;20193;-58
2023/01/14 12:10:00;;;;;;;1.13;0.40;;;;;;;10.40;61.91;95406.66;4360619;32;20259;-58
2023/01/14 12:16:48;;;;;;;0.30;0.23;;;;;;;10.44;61.48;95397.03;4349782;32;20227;-57
2023/01/14 12:19:12;;;;;;;0.00;0.00;;;;;;;10.37;59.97;95386.81;4353652;32;20470;-58
2023/01/14 12:21:44;;;;;;;0.10;0.10;;;;;;;10.28;60.47;95377.94;4340073;32;20287;-58
2023/01/14 12:24:43;;;;;;;4.33;0.70;;;;;;;10.26;60.33;95375.56;4338978;32;20296;-58
2023/01/14 12:27:41;;;;;;;0.00;0.00;;;;;;;10.25;59.81;95365.25;4352138;32;20355;-58